Pagrindinis puslapis
METAR-TAF:

METAR-TAF

Oro uostai :

Rurenabakė, Bolivija

platuma: 14-28S, ilguma: 067-34W, Aukštis: 204 m

Dabartinis oras

Ataskaita buvo paskelbta 53 minutes, ne 21:00 UTC
Ramus vėjas
Temperatūra 32°C
Drėgmė 75%
Slėgis 1007 hPa
Matomumas 10 km arba daugiau
Išsisklaidę debesys ne aukštis 2000 ft
Išsisklaidę debesys ne aukštis 20000 ft

METAR: SLRQ 282100Z 00000KT 9999 SCT020 SCT200 32/27 Q1007

Laikas: 17:53 (21:53 UTC)


TAF: trūkstamas

Orai ataskaitas ir orų prognozės (METAR, TAF).

turimą stotys yra geltonos ir raudonos taškus žemėlapyje.

Perkelti pele per norėdami pamatyti stoties vardą.

Tada spustelėkite, norėdami matyti oro stebėjimo ir prognozės.

Norėdami pakeisti žemėlapį: spustelėkite ant žalios mygtukų su juodo kryžiaus žemyn,; žalią mygtuką su brūkšneliu, jei norite nutolinti; arba žalių rodyklių gretimoms žemėlapius.


METAR-TAF: